Time;durP1;ratioP1;P1;durP2;ratioP2;P2;SDS_P1;SDS_P2;PMS_P1;PMS_P2;Temp;Humidity;BMP_temperature;BMP_pressure;BME280_temperature;BME280_humidity;BME280_pressure;Samples;Min_cycle;Max_cycle;Signal;HPM_P1;HPM_P2
2022/01/18 00:00:00;;;;;;;168.93;80.72;;;2.50;99.90;;;;;;5085606;28;20028;-81
2022/01/18 00:02:26;;;;;;;156.25;71.05;;;1.10;99.90;;;;;;5085543;28;20030;-81
2022/01/18 00:04:52;;;;;;;247.68;106.30;;;2.50;99.90;;;;;;5067143;28;20538;-80
2022/01/18 00:07:18;;;;;;;150.65;67.05;;;2.60;99.90;;;;;;5065930;28;20024;-81
2022/01/18 00:09:44;;;;;;;93.15;44.53;;;2.60;99.90;;;;;;5083702;28;20477;-81
2022/01/18 00:12:54;;;;;;;105.88;50.00;;;2.60;99.90;;;;;;5065177;28;20036;-80
2022/01/18 00:15:31;;;;;;;115.75;53.00;;;2.60;99.90;;;;;;5083702;28;20111;-80
2022/01/18 00:23:09;;;;;;;77.15;38.45;;;2.60;99.90;;;;;;5066233;28;20052;-82
2022/01/18 00:25:38;;;;;;;84.25;39.13;;;2.70;99.90;;;;;;5050351;28;20248;-80
2022/01/18 00:28:07;;;;;;;67.88;31.55;;;2.70;99.90;;;;;;5082451;28;20016;-81
2022/01/18 00:33:37;;;;;;;103.85;49.30;;;2.90;98.80;;;;;;5083120;28;20362;-81
2022/01/18 00:35:59;;;;;;;29.55;14.45;;;2.90;98.90;;;;;;5084594;28;20490;-81
2022/01/18 00:38:31;;;;;;;26.75;13.00;;;3.00;98.20;;;;;;5068788;28;20589;-82
2022/01/18 00:40:58;;;;;;;25.80;11.65;;;3.00;97.90;;;;;;5088131;28;20055;-81
2022/01/18 00:43:27;;;;;;;22.00;10.13;;;3.00;98.00;;;;;;5072093;28;20332;-80
2022/01/18 00:45:52;;;;;;;18.30;8.32;;;3.00;97.90;;;;;;5091606;28;20643;-81
2022/01/18 00:48:24;;;;;;;24.85;11.35;;;3.10;97.70;;;;;;5094304;28;20016;-80
2022/01/18 00:50:52;;;;;;;32.53;13.07;;;3.20;96.80;;;;;;5093246;28;20028;-81
2022/01/18 00:53:19;;;;;;;55.67;21.55;;;3.20;94.40;;;;;;5092074;28;20232;-81
2022/01/18 00:55:54;;;;;;;18.27;6.93;;;3.20;93.10;;;;;;5078971;28;20052;-80
2022/01/18 00:58:19;;;;;;;5.25;2.80;;;3.40;93.10;;;;;;5097600;28;20016;-79
2022/01/18 01:00:50;;;;;;;5.57;3.22;;;3.40;93.10;;;;;;5078979;28;20020;-81
2022/01/18 01:03:16;;;;;;;12.52;5.80;;;3.40;92.90;;;;;;5091779;28;20024;-81
2022/01/18 01:05:42;;;;;;;80.10;28.73;;;3.50;92.00;;;;;;5087987;28;20081;-81
2022/01/18 01:08:08;;;;;;;7.18;3.30;;;3.50;92.10;;;;;;5088043;28;20078;-81
2022/01/18 01:10:34;;;;;;;12.98;4.90;;;3.50;91.90;;;;;;5086908;28;20040;-81
2022/01/18 01:13:00;;;;;;;140.23;44.50;;;3.50;91.60;;;;;;5087521;28;20027;-81
2022/01/18 01:15:28;;;;;;;23.77;9.02;;;3.50;91.40;;;;;;5087558;28;20016;-80
2022/01/18 01:18:12;;;;;;;113.43;39.17;;;3.50;91.40;;;;;;5088160;28;20051;-81
2022/01/18 01:44:59;;;;;;;72.78;30.58;;;3.20;96.10;;;;;;4999322;28;20783;-80
2022/01/18 01:47:37;;;;;;;61.78;26.20;;;3.00;97.70;;;;;;4999954;28;20050;-81
2022/01/18 01:50:08;;;;;;;82.55;32.05;;;3.10;97.90;;;;;;5000247;28;20091;-81
2022/01/18 01:52:35;;;;;;;80.75;32.30;;;3.00;98.00;;;;;;5000525;28;20046;-80
2022/01/18 01:55:08;;;;;;;59.88;25.48;;;3.00;98.40;;;;;;5002118;28;20599;-81
2022/01/18 01:57:34;;;;;;;39.70;17.92;;;2.80;98.70;;;;;;5002154;28;20083;-81
2022/01/18 02:00:06;;;;;;;34.88;16.75;;;2.80;98.80;;;;;;5002137;28;20147;-81
2022/01/18 02:02:33;;;;;;;28.95;14.10;;;2.70;99.10;;;;;;5000219;28;20065;-81
2022/01/18 02:04:59;;;;;;;26.42;12.63;;;2.70;99.20;;;;;;5000482;28;20106;-81
2022/01/18 02:07:26;;;;;;;26.75;13.38;;;2.60;99.50;;;;;;5000692;28;20365;-81
2022/01/18 02:09:51;;;;;;;166.93;65.60;;;2.60;99.60;;;;;;4983777;28;20072;-81
2022/01/18 02:12:19;;;;;;;99.07;41.67;;;2.50;99.90;;;;;;4999198;28;20078;-82
2022/01/18 02:14:57;;;;;;;34.60;16.70;;;2.50;99.90;;;;;;4999156;28;20091;-81
2022/01/18 02:22:55;;;;;;;24.98;12.52;;;2.20;99.90;;;;;;5035184;28;20373;-81
2022/01/18 02:25:24;;;;;;;38.03;16.15;;;2.20;99.90;;;;;;5038663;28;20121;-82
2022/01/18 02:27:51;;;;;;;25.70;12.40;;;2.10;99.90;;;;;;5041033;28;20025;-81
2022/01/18 02:30:17;;;;;;;25.83;12.18;;;2.20;99.90;;;;;;5040152;28;20530;-81
2022/01/18 02:32:46;;;;;;;23.42;11.75;;;2.10;99.90;;;;;;5040581;28;20036;-82
2022/01/18 02:35:14;;;;;;;24.38;11.75;;;2.10;99.90;;;;;;5039392;28;20633;-81
2022/01/18 02:37:39;;;;;;;25.48;12.07;;;2.00;99.90;;;;;;5039741;28;20025;-80
2022/01/18 02:40:05;;;;;;;25.20;11.45;;;2.00;99.90;;;;;;5039232;28;20124;-80
2022/01/18 02:42:41;;;;;;;25.90;12.13;;;1.90;99.90;;;;;;5038498;28;20052;-80
2022/01/18 02:45:10;;;;;;;29.20;12.45;;;1.90;99.90;;;;;;5038329;28;20027;-81
2022/01/18 02:47:36;;;;;;;24.42;11.60;;;2.20;99.90;;;;;;5040401;28;20025;-81
2022/01/18 02:50:05;;;;;;;31.52;13.70;;;1.90;99.90;;;;;;5041222;28;20321;-81
2022/01/18 02:52:30;;;;;;;30.40;14.10;;;2.10;99.90;;;;;;5044498;28;20053;-80
2022/01/18 02:54:58;;;;;;;31.15;14.70;;;1.90;99.90;;;;;;5042829;28;20380;-81
2022/01/18 02:57:26;;;;;;;27.67;12.75;;;1.90;99.90;;;;;;5045412;28;20037;-81
2022/01/18 03:00:18;;;;;;;25.40;12.40;;;1.90;99.90;;;;;;5051445;28;20025;-81
2022/01/18 03:05:30;;;;;;;22.00;10.60;;;1.90;99.90;;;;;;5044390;28;20110;-80
2022/01/18 03:07:56;;;;;;;21.58;10.00;;;1.90;99.90;;;;;;5043451;28;20028;-81
2022/01/18 03:10:22;;;;;;;19.52;9.35;;;1.90;99.50;;;;;;5070106;28;20043;-81
2022/01/18 03:12:49;;;;;;;14.95;7.60;;;1.90;99.20;;;;;;5084032;28;20500;-81
2022/01/18 03:15:15;;;;;;;15.93;8.52;;;1.90;99.10;;;;;;5064981;28;20020;-81
2022/01/18 03:17:41;;;;;;;18.35;8.30;;;1.90;98.80;;;;;;5065011;28;20023;-81
2022/01/18 03:20:11;;;;;;;18.48;8.57;;;1.90;98.80;;;;;;5064545;28;20028;-81
2022/01/18 03:22:37;;;;;;;17.88;8.30;;;1.90;98.40;;;;;;5065252;28;20394;-80
2022/01/18 03:25:24;;;;;;;20.45;8.38;;;1.90;98.70;;;;;;5065165;28;20569;-80
2022/01/18 03:28:04;;;;;;;31.53;14.40;;;1.90;98.70;;;;;;5083804;28;20578;-81
2022/01/18 03:30:34;;;;;;;109.47;42.05;;;1.90;98.50;;;;;;5065469;28;20527;-80
2022/01/18 03:33:03;;;;;;;61.45;23.63;;;3.50;99.00;;;;;;5083461;28;20055;-80
2022/01/18 03:35:32;;;;;;;17.45;7.43;;;1.80;98.80;;;;;;5064158;28;20019;-80
2022/01/18 03:37:59;;;;;;;13.60;6.38;;;1.80;97.50;;;;;;5082448;28;20320;-80
2022/01/18 03:40:28;;;;;;;13.52;5.50;;;2.40;97.40;;;;;;5083893;28;20023;-80
2022/01/18 03:42:55;;;;;;;9.85;4.80;;;2.50;97.00;;;;;;5070061;28;20721;-80
2022/01/18 03:45:29;;;;;;;10.35;5.32;;;1.60;96.90;;;;;;5090941;28;20096;-80
2022/01/18 03:48:03;;;;;;;20.33;6.63;;;1.50;97.00;;;;;;5091083;28;20016;-80
2022/01/18 03:50:29;;;;;;;7.32;3.78;;;1.50;96.10;;;;;;5090621;28;20039;-80
2022/01/18 03:52:55;;;;;;;7.30;3.25;;;1.50;95.70;;;;;;5065694;28;20024;-80
2022/01/18 03:55:27;;;;;;;8.05;3.67;;;1.50;95.20;;;;;;5083078;28;20028;-80
2022/01/18 03:57:55;;;;;;;8.02;3.22;;;1.40;95.30;;;;;;5083161;28;20016;-80
2022/01/18 04:00:27;;;;;;;4.95;2.47;;;1.40;95.10;;;;;;5083497;28;20220;-79
2022/01/18 04:02:55;;;;;;;7.07;2.90;;;1.30;94.80;;;;;;5082583;28;20027;-80
2022/01/18 04:05:21;;;;;;;8.07;3.25;;;3.00;94.90;;;;;;5063545;28;20028;-79
2022/01/18 04:07:53;;;;;;;6.70;3.25;;;1.30;94.80;;;;;;5063574;28;20127;-80
2022/01/18 04:10:21;;;;;;;6.30;2.80;;;2.40;95.00;;;;;;5081062;28;20055;-79
2022/01/18 04:12:47;;;;;;;3.80;2.10;;;1.30;94.50;;;;;;5081622;28;20107;-80
2022/01/18 04:15:15;;;;;;;4.45;2.50;;;1.30;93.80;;;;;;5063466;28;20059;-80
2022/01/18 04:25:58;;;;;;;12.43;5.82;;;1.10;95.60;;;;;;5082301;28;20063;-80
2022/01/18 04:30:54;;;;;;;21.08;11.23;;;1.00;95.70;;;;;;5084881;28;20024;-80
2022/01/18 04:33:20;;;;;;;23.08;10.63;;;1.00;96.10;;;;;;5087025;28;20689;-81
2022/01/18 04:35:46;;;;;;;24.55;13.30;;;0.90;96.60;;;;;;5086481;28;20036;-80
2022/01/18 04:38:14;;;;;;;16.02;8.23;;;0.80;97.20;;;;;;5084172;28;20248;-80
2022/01/18 04:40:44;;;;;;;12.63;5.53;;;0.70;96.60;;;;;;5082289;28;20032;-79
2022/01/18 04:43:17;;;;;;;35.25;18.17;;;0.70;96.30;;;;;;5047995;28;20374;-79
2022/01/18 04:48:40;;;;;;;24.73;11.32;;;0.50;96.50;;;;;;5081394;28;20503;-79
2022/01/18 04:51:11;;;;;;;22.33;10.85;;;0.50;97.60;;;;;;5080650;28;20043;-79
2022/01/18 04:53:41;;;;;;;30.90;14.98;;;0.50;97.70;;;;;;5081871;28;20031;-80
2022/01/18 04:56:15;;;;;;;30.20;15.70;;;-2.30;97.20;;;;;;5081508;28;20476;-80
2022/01/18 04:58:41;;;;;;;26.58;13.82;;;0.80;97.90;;;;;;5081876;28;20023;-79
2022/01/18 05:01:09;;;;;;;19.80;10.80;;;0.30;98.40;;;;;;5081642;28;20063;-80
2022/01/18 05:03:35;;;;;;;28.75;16.00;;;3.10;98.40;;;;;;5081482;28;20024;-80
2022/01/18 05:06:16;;;;;;;26.95;15.10;;;0.20;97.70;;;;;;5063374;28;20028;-80
2022/01/18 05:08:42;;;;;;;19.73;10.13;;;0.10;98.00;;;;;;5068180;28;20016;-80
2022/01/18 05:11:13;;;;;;;15.65;7.63;;;0.10;97.60;;;;;;5086335;28;20059;-80
2022/01/18 05:24:53;;;;;;;28.40;14.20;;;-0.10;98.10;;;;;;4920220;29;20106;-80
2022/01/18 05:27:21;;;;;;;25.65;13.40;;;-0.10;98.40;;;;;;4920193;29;20036;-80
2022/01/18 05:29:47;;;;;;;30.05;13.45;;;-0.30;98.30;;;;;;4904203;29;20358;-80
2022/01/18 05:32:13;;;;;;;26.15;14.15;;;-0.20;98.20;;;;;;4920098;29;20530;-80
2022/01/18 05:34:44;;;;;;;32.40;16.02;;;-0.20;98.20;;;;;;4920131;29;20229;-79
2022/01/18 05:37:10;;;;;;;35.35;14.27;;;-0.30;98.50;;;;;;4920368;29;20035;-79
2022/01/18 05:39:36;;;;;;;34.30;14.57;;;-0.30;98.50;;;;;;4919885;29;20510;-79
2022/01/18 05:42:08;;;;;;;32.40;14.50;;;-0.30;98.50;;;;;;4920155;29;20095;-80
2022/01/18 05:44:33;;;;;;;39.42;17.05;;;-0.40;98.50;;;;;;4919804;29;20030;-79
2022/01/18 05:46:59;;;;;;;34.08;14.55;;;-2.30;97.60;;;;;;4919470;29;20032;-79
2022/01/18 05:49:25;;;;;;;31.05;13.82;;;-0.50;97.80;;;;;;4919920;29;20071;-80
2022/01/18 05:51:51;;;;;;;31.90;14.23;;;-0.50;97.60;;;;;;4919354;29;20052;-80
2022/01/18 05:54:19;;;;;;;28.40;13.32;;;-0.50;98.20;;;;;;4919216;29;20438;-79
2022/01/18 05:56:45;;;;;;;34.28;14.18;;;-0.60;98.30;;;;;;4973358;28;20242;-80
2022/01/18 05:59:18;;;;;;;34.78;14.27;;;-0.60;98.20;;;;;;5057518;28;20032;-80
2022/01/18 06:01:48;;;;;;;50.45;20.67;;;-0.60;98.20;;;;;;5061288;28;20108;-79
2022/01/18 06:06:59;;;;;;;69.18;28.55;;;-0.70;98.20;;;;;;5080028;28;20055;-79
2022/01/18 06:09:26;;;;;;;55.08;22.52;;;-0.70;98.40;;;;;;5057676;28;20684;-79
2022/01/18 06:11:53;;;;;;;42.58;18.35;;;-0.90;98.00;;;;;;5059343;28;20055;-80
2022/01/18 06:14:19;;;;;;;32.67;15.50;;;-0.80;97.60;;;;;;5059272;28;20093;-80
2022/01/18 06:16:45;;;;;;;43.42;20.15;;;-0.80;97.20;;;;;;5058391;28;20028;-80
2022/01/18 06:19:12;;;;;;;47.85;20.33;;;-0.80;96.70;;;;;;5058384;28;20024;-79
2022/01/18 06:21:39;;;;;;;43.83;19.10;;;-0.90;96.40;;;;;;5059262;28;20115;-80
2022/01/18 06:24:08;;;;;;;37.75;16.88;;;-0.90;96.70;;;;;;5041492;28;20028;-80
2022/01/18 06:26:36;;;;;;;36.42;16.02;;;-0.90;96.80;;;;;;5059160;28;20020;-80
2022/01/18 06:29:04;;;;;;;41.15;15.73;;;-0.90;96.30;;;;;;5063358;28;20039;-79
2022/01/18 06:31:30;;;;;;;40.03;18.45;;;-0.20;96.60;;;;;;5069681;28;20043;-80
2022/01/18 06:33:56;;;;;;;45.97;20.05;;;-0.90;96.60;;;;;;5071529;28;20076;-79
2022/01/18 06:36:30;;;;;;;40.15;18.75;;;-0.90;96.80;;;;;;5069894;28;20240;-80
2022/01/18 06:38:56;;;;;;;37.60;18.33;;;-0.90;96.80;;;;;;5060130;28;20050;-79
2022/01/18 06:41:24;;;;;;;40.17;18.60;;;-0.90;96.70;;;;;;5061444;28;20025;-79
2022/01/18 06:43:50;;;;;;;36.70;17.05;;;-0.90;96.90;;;;;;5060689;28;20031;-79
2022/01/18 06:46:16;;;;;;;36.55;16.48;;;-0.90;97.30;;;;;;5060172;28;20267;-79
2022/01/18 06:48:44;;;;;;;45.63;20.75;;;-0.90;96.90;;;;;;5059872;28;20021;-79
2022/01/18 06:51:10;;;;;;;48.72;21.40;;;-0.90;96.70;;;;;;5058611;28;20032;-80
2022/01/18 06:53:43;;;;;;;41.58;18.65;;;-0.80;96.40;;;;;;5060012;28;20028;-80
2022/01/18 06:56:15;;;;;;;37.67;16.20;;;-0.80;96.20;;;;;;5059286;28;20347;-79
2022/01/18 06:58:41;;;;;;;32.95;15.05;;;-1.90;95.90;;;;;;5058598;28;20032;-79
2022/01/18 07:01:12;;;;;;;32.95;15.18;;;-0.80;96.50;;;;;;5060156;28;20442;-79
2022/01/18 07:03:48;;;;;;;48.30;19.08;;;-0.70;96.50;;;;;;5059834;28;20059;-79
2022/01/18 07:06:18;;;;;;;96.32;35.03;;;-0.70;96.70;;;;;;5062778;28;20126;-81
2022/01/18 07:08:44;;;;;;;115.72;43.15;;;-3.20;95.80;;;;;;5066789;28;20035;-79
2022/01/18 07:11:10;;;;;;;73.75;29.20;;;-0.60;96.40;;;;;;5084280;28;20521;-80
2022/01/18 07:13:35;;;;;;;47.25;19.48;;;-0.60;95.90;;;;;;5085880;28;20174;-79
2022/01/18 07:16:02;;;;;;;63.15;26.40;;;-0.50;95.70;;;;;;5080404;28;20221;-79
2022/01/18 07:18:28;;;;;;;64.93;29.27;;;-0.50;95.70;;;;;;5080472;28;20508;-80
2022/01/18 07:21:00;;;;;;;55.30;24.10;;;-0.40;95.60;;;;;;5082897;28;20604;-79
2022/01/18 07:23:26;;;;;;;46.92;18.75;;;-0.30;96.40;;;;;;5068084;28;20016;-79
2022/01/18 07:25:53;;;;;;;32.05;14.02;;;-0.20;95.40;;;;;;5063202;28;20035;-80
2022/01/18 07:28:20;;;;;;;29.00;11.85;;;-0.10;94.50;;;;;;5062251;28;20032;-80
2022/01/18 07:30:50;;;;;;;25.30;10.73;;;0.90;94.00;;;;;;5080152;28;20303;-79
2022/01/18 07:33:16;;;;;;;33.17;14.48;;;0.00;94.00;;;;;;5079948;28;20045;-79
2022/01/18 07:35:43;;;;;;;31.10;13.13;;;0.10;93.70;;;;;;5045303;28;20339;-79
2022/01/18 07:38:16;;;;;;;28.65;11.60;;;0.10;93.60;;;;;;5064725;28;20288;-79
2022/01/18 07:40:44;;;;;;;24.92;12.80;;;0.30;93.70;;;;;;5086050;28;20017;-79
2022/01/18 07:43:11;;;;;;;24.55;12.50;;;0.30;93.40;;;;;;5087349;28;20028;-79
2022/01/18 07:45:37;;;;;;;35.78;17.75;;;0.40;93.30;;;;;;5070590;28;20024;-80
2022/01/18 07:48:04;;;;;;;58.65;26.88;;;0.50;93.00;;;;;;5086880;28;20055;-80
2022/01/18 07:50:31;;;;;;;59.50;29.50;;;0.50;92.70;;;;;;5065910;28;20400;-79
2022/01/18 07:52:58;;;;;;;53.10;25.70;;;0.60;92.30;;;;;;5083534;28;20032;-79
2022/01/18 07:55:27;;;;;;;66.20;27.27;;;0.70;92.00;;;;;;5065233;28;20515;-80
2022/01/18 07:57:54;;;;;;;45.75;24.13;;;0.80;92.00;;;;;;5047087;28;20530;-80
2022/01/18 08:00:24;;;;;;;48.40;23.40;;;0.90;91.60;;;;;;5063619;28;20076;-77
2022/01/18 08:02:50;;;;;;;43.92;21.50;;;1.00;90.90;;;;;;5063146;28;20313;-79
2022/01/18 08:05:17;;;;;;;43.78;19.25;;;1.10;90.70;;;;;;5082307;28;20509;-80
2022/01/18 08:07:43;;;;;;;40.58;20.23;;;1.20;90.00;;;;;;5063889;28;20136;-79
2022/01/18 08:10:11;;;;;;;42.65;20.15;;;1.20;89.90;;;;;;5082000;28;20670;-80
2022/01/18 08:12:39;;;;;;;51.85;21.23;;;1.40;88.40;;;;;;5081958;28;20225;-79
2022/01/18 08:15:14;;;;;;;57.03;24.40;;;1.50;89.00;;;;;;5063611;28;20020;-79
2022/01/18 08:17:42;;;;;;;46.95;21.08;;;1.60;88.10;;;;;;5082333;28;20330;-79
2022/01/18 08:20:14;;;;;;;47.03;20.65;;;1.60;87.70;;;;;;5081576;28;20024;-80
2022/01/18 08:22:41;;;;;;;36.47;17.05;;;1.60;87.50;;;;;;5063389;28;20016;-79
2022/01/18 08:25:35;;;;;;;38.50;18.35;;;1.80;83.50;;;;;;5063923;28;20115;-80
2022/01/18 08:28:02;;;;;;;38.10;17.17;;;2.70;82.70;;;;;;4999068;28;20153;-79
2022/01/18 08:30:27;;;;;;;35.33;15.88;;;2.10;80.90;;;;;;4998887;28;20038;-79
2022/01/18 08:32:56;;;;;;;29.08;11.35;;;2.20;78.80;;;;;;4999877;28;20034;-79
2022/01/18 08:35:25;;;;;;;28.95;12.70;;;2.30;73.80;;;;;;4999010;28;20144;-79
2022/01/18 08:37:51;;;;;;;33.42;14.45;;;2.50;73.00;;;;;;4982955;28;20125;-79
2022/01/18 08:40:17;;;;;;;17.25;8.23;;;2.70;71.70;;;;;;4982824;28;20113;-79
2022/01/18 08:42:44;;;;;;;16.48;6.78;;;2.60;64.30;;;;;;4999541;28;20026;-80
2022/01/18 08:45:10;;;;;;;11.23;5.65;;;2.70;62.30;;;;;;4999744;28;20053;-80
2022/01/18 08:47:36;;;;;;;8.50;4.00;;;2.80;61.50;;;;;;4998477;28;20022;-79
2022/01/18 08:50:08;;;;;;;10.98;5.00;;;2.90;58.40;;;;;;4999860;28;20095;-79
2022/01/18 08:52:33;;;;;;;10.35;4.78;;;3.10;58.40;;;;;;4999090;28;20096;-79
2022/01/18 08:54:59;;;;;;;14.07;6.72;;;3.30;57.10;;;;;;4982651;28;20672;-80
2022/01/18 08:57:25;;;;;;;20.05;10.05;;;3.40;59.60;;;;;;4982911;28;20061;-79
2022/01/18 08:59:53;;;;;;;15.25;6.63;;;3.60;59.60;;;;;;4998990;28;20026;-79
2022/01/18 09:02:19;;;;;;;9.30;3.58;;;1.90;55.50;;;;;;4983110;28;20030;-79
2022/01/18 09:04:46;;;;;;;6.57;2.30;;;3.80;55.80;;;;;;5014131;28;20040;-79
2022/01/18 09:07:12;;;;;;;11.23;4.72;;;3.80;53.50;;;;;;5081733;28;20077;-79
2022/01/18 09:09:40;;;;;;;12.27;4.65;;;3.80;51.40;;;;;;5082163;28;20052;-80
2022/01/18 09:12:14;;;;;;;12.60;4.93;;;3.80;52.80;;;;;;5092481;28;20047;-79
2022/01/18 09:14:40;;;;;;;8.27;3.10;;;3.80;50.20;;;;;;5075878;28;20044;-79
2022/01/18 09:17:07;;;;;;;6.75;3.20;;;3.90;49.50;;;;;;5095001;28;20517;-79
2022/01/18 09:19:36;;;;;;;5.22;2.83;;;4.00;51.60;;;;;;5085374;28;20023;-79
2022/01/18 09:22:03;;;;;;;5.63;3.05;;;4.20;49.80;;;;;;5065185;28;20037;-79
2022/01/18 09:24:30;;;;;;;10.75;4.68;;;4.50;50.10;;;;;;5064978;28;20513;-80
2022/01/18 09:27:00;;;;;;;21.25;8.48;;;4.60;49.60;;;;;;5083496;28;20020;-79
2022/01/18 09:29:26;;;;;;;19.27;8.68;;;4.80;52.20;;;;;;5064920;28;20090;-81
2022/01/18 09:31:52;;;;;;;21.92;9.20;;;4.90;48.70;;;;;;5067074;28;20059;-81
2022/01/18 09:34:17;;;;;;;18.00;8.05;;;4.90;48.90;;;;;;5069722;28;20448;-80
2022/01/18 09:36:44;;;;;;;19.08;8.85;;;5.00;49.80;;;;;;5082370;28;20279;-80
2022/01/18 09:39:10;;;;;;;15.75;7.13;;;4.80;49.00;;;;;;5064127;28;20024;-79
2022/01/18 09:41:46;;;;;;;15.65;7.63;;;5.20;47.60;;;;;;5062720;28;20396;-79
2022/01/18 09:44:12;;;;;;;17.58;8.02;;;5.30;49.40;;;;;;5081370;28;20066;-80
2022/01/18 09:46:38;;;;;;;19.33;8.48;;;5.40;49.50;;;;;;5080773;28;20036;-80
2022/01/18 09:49:05;;;;;;;14.32;6.30;;;5.60;48.20;;;;;;5081384;28;20089;-79
2022/01/18 09:51:31;;;;;;;10.18;3.97;;;5.60;46.90;;;;;;5081112;28;20275;-80
2022/01/18 09:53:58;;;;;;;8.30;3.17;;;5.30;46.80;;;;;;5080890;28;20039;-80
2022/01/18 09:56:24;;;;;;;10.80;3.85;;;5.40;47.10;;;;;;5081065;28;20467;-80
2022/01/18 09:58:50;;;;;;;13.90;5.68;;;5.20;46.30;;;;;;5080916;28;20101;-79
2022/01/18 10:01:16;;;;;;;10.32;3.17;;;5.20;47.20;;;;;;5081438;28;20196;-80
2022/01/18 10:03:42;;;;;;;8.32;3.50;;;4.70;47.40;;;;;;5063583;28;20095;-79
2022/01/18 10:06:12;;;;;;;9.52;3.33;;;4.90;48.20;;;;;;5080686;28;20102;-80
2022/01/18 10:08:42;;;;;;;10.35;4.90;;;5.10;48.40;;;;;;5063060;28;20502;-80
2022/01/18 10:11:17;;;;;;;10.18;3.63;;;4.80;48.60;;;;;;5080588;28;20063;-79
2022/01/18 10:13:49;;;;;;;10.40;3.85;;;4.80;48.20;;;;;;5062411;28;20408;-80
2022/01/18 10:16:17;;;;;;;7.28;3.40;;;5.20;48.60;;;;;;5063056;28;20034;-79
2022/01/18 10:18:47;;;;;;;11.88;4.20;;;5.00;47.60;;;;;;5080672;28;20309;-79
2022/01/18 10:21:20;;;;;;;8.02;3.58;;;4.80;48.60;;;;;;5080769;28;20308;-79
2022/01/18 10:23:48;;;;;;;9.18;3.63;;;5.00;49.00;;;;;;5081514;28;20121;-80
2022/01/18 10:26:25;;;;;;;8.25;3.40;;;5.20;47.90;;;;;;5081315;28;20390;-80
2022/01/18 10:29:03;;;;;;;6.90;2.60;;;5.50;48.30;;;;;;5080147;28;20016;-80
2022/01/18 10:31:44;;;;;;;4.15;2.20;;;5.60;46.10;;;;;;5079866;28;20035;-80
2022/01/18 10:37:12;;;;;;;5.28;2.45;;;6.20;46.00;;;;;;5080711;28;20032;-80
2022/01/18 10:39:40;;;;;;;9.63;2.58;;;6.20;44.60;;;;;;5080580;28;20040;-79
2022/01/18 10:42:19;;;;;;;7.93;2.85;;;6.00;45.30;;;;;;5079685;28;20676;-80
2022/01/18 10:44:57;;;;;;;8.13;3.58;;;5.90;43.60;;;;;;5081547;28;20095;-80
2022/01/18 10:47:23;;;;;;;8.82;3.03;;;6.00;44.70;;;;;;5081953;28;20028;-80
2022/01/18 10:49:49;;;;;;;8.27;2.60;;;5.90;43.10;;;;;;5062670;28;20096;-80
2022/01/18 10:52:26;;;;;;;7.00;2.97;;;6.30;44.80;;;;;;5079867;28;20032;-81
2022/01/18 10:54:59;;;;;;;6.70;3.05;;;6.50;43.80;;;;;;5061217;28;20103;-80
2022/01/18 10:57:36;;;;;;;7.05;3.08;;;6.60;42.40;;;;;;5079750;28;20024;-80
2022/01/18 11:00:16;;;;;;;5.70;2.70;;;6.80;43.30;;;;;;5080410;28;20016;-80
2022/01/18 11:02:44;;;;;;;6.25;2.40;;;6.70;42.10;;;;;;5079787;28;20036;-80
2022/01/18 11:05:31;;;;;;;8.68;3.00;;;6.80;42.70;;;;;;5079386;28;20039;-80
2022/01/18 11:08:03;;;;;;;5.35;2.38;;;6.60;43.00;;;;;;5079476;28;20251;-80
2022/01/18 11:10:40;;;;;;;8.18;2.92;;;6.60;42.80;;;;;;5079776;28;20059;-80
2022/01/18 11:13:11;;;;;;;4.07;1.92;;;6.60;42.90;;;;;;5084003;28;20048;-80
2022/01/18 11:15:40;;;;;;;9.70;3.08;;;6.50;42.50;;;;;;5084584;28;20112;-80
2022/01/18 11:18:13;;;;;;;6.20;2.35;;;6.60;42.60;;;;;;5065947;28;20452;-80
2022/01/18 11:20:42;;;;;;;10.27;2.75;;;6.30;43.20;;;;;;5083554;28;20048;-80
2022/01/18 11:23:09;;;;;;;8.93;3.13;;;6.40;43.10;;;;;;5065534;28;20501;-80
2022/01/18 11:25:37;;;;;;;7.50;2.67;;;6.20;43.00;;;;;;5065515;28;20020;-80
2022/01/18 11:28:06;;;;;;;8.00;2.35;;;6.30;43.10;;;;;;5065278;28;20028;-80
2022/01/18 11:30:36;;;;;;;6.80;2.95;;;6.30;41.90;;;;;;5083335;28;20047;-80
2022/01/18 11:33:05;;;;;;;4.40;2.47;;;6.10;40.50;;;;;;5084130;28;20008;-81
2022/01/18 11:35:56;;;;;;;8.73;2.60;;;6.00;41.90;;;;;;5084040;28;20126;-80
2022/01/18 11:38:43;;;;;;;8.13;2.63;;;6.10;41.70;;;;;;5083326;28;20028;-80
2022/01/18 11:41:25;;;;;;;2.88;2.05;;;6.30;42.30;;;;;;5065429;28;20031;-80
2022/01/18 11:43:51;;;;;;;7.00;1.67;;;6.30;42.50;;;;;;5064437;28;20039;-80
2022/01/18 11:46:38;;;;;;;5.57;1.65;;;6.50;41.20;;;;;;5065734;28;20066;-79
2022/01/18 11:49:23;;;;;;;4.22;1.90;;;6.40;40.40;;;;;;5084007;28;20012;-78
2022/01/18 11:51:55;;;;;;;6.13;2.20;;;6.60;41.20;;;;;;5065571;28;20062;-80
2022/01/18 11:54:43;;;;;;;4.25;1.70;;;6.60;42.30;;;;;;5066270;28;20016;-80
2022/01/18 11:57:26;;;;;;;9.00;1.35;;;6.60;41.30;;;;;;5083601;28;20105;-80
2022/01/18 11:59:54;;;;;;;3.75;1.50;;;6.40;40.40;;;;;;5065520;28;20016;-79
2022/01/18 12:02:39;;;;;;;3.20;1.63;;;6.50;40.10;;;;;;5082758;28;20323;-80
2022/01/18 12:05:17;;;;;;;3.92;1.35;;;6.50;40.90;;;;;;5083297;28;20056;-80
2022/01/18 12:07:44;;;;;;;2.15;1.20;;;6.50;40.20;;;;;;5085143;28;20020;-80
2022/01/18 12:10:34;;;;;;;5.03;2.13;;;6.50;39.00;;;;;;5085352;28;20067;-79
2022/01/18 12:13:11;;;;;;;6.90;2.42;;;7.70;40.20;;;;;;5084694;28;20093;-79
2022/01/18 12:15:38;;;;;;;;;;;6.70;40.80;;;;;;5065552;28;20107;-80
2022/01/18 12:18:34;;;;;;;6.28;1.60;;;6.60;39.80;;;;;;5065679;28;19957;-80
2022/01/18 12:21:05;;;;;;;5.68;2.17;;;6.90;38.20;;;;;;5019738;28;20306;-79
2022/01/18 12:23:44;;;;;;;3.85;1.52;;;7.00;39.60;;;;;;5020180;28;20030;-79
2022/01/18 12:26:37;;;;;;;3.63;1.83;;;8.70;40.10;;;;;;5020796;28;20033;-79
2022/01/18 12:34:48;;;;;;;8.30;1.20;;;6.80;38.30;;;;;;5020942;28;20056;-80
2022/01/18 12:37:16;;;;;;;4.65;2.15;;;6.90;38.90;;;;;;5006497;28;20447;-79
2022/01/18 12:39:55;;;;;;;2.83;1.50;;;7.10;39.30;;;;;;5010052;28;20032;-80
2022/01/18 12:45:20;;;;;;;3.25;1.77;;;7.30;38.80;;;;;;5025399;28;20353;-79
2022/01/18 12:47:51;;;;;;;10.45;3.20;;;7.40;39.50;;;;;;5023829;28;20079;-80
2022/01/18 12:50:47;;;;;;;4.57;1.83;;;7.50;39.20;;;;;;5020541;28;20551;-79
2022/01/18 12:53:15;;;;;;;6.28;2.28;;;7.50;38.50;;;;;;5008846;28;20033;-79
2022/01/18 12:55:57;;;;;;;4.38;2.03;;;7.60;38.50;;;;;;5003864;28;20029;-79
2022/01/18 12:58:31;;;;;;;5.13;2.10;;;7.40;38.40;;;;;;5076963;28;20567;-79
2022/01/18 13:00:57;;;;;;;5.47;1.83;;;7.60;39.20;;;;;;5083797;28;20028;-79
2022/01/18 13:03:23;;;;;;;6.45;1.80;;;7.50;36.60;;;;;;5084763;28;20070;-80
2022/01/18 13:05:52;;;;;;;3.25;1.70;;;7.70;38.30;;;;;;5070027;28;20020;-80
2022/01/18 13:08:21;;;;;;;7.25;2.42;;;8.00;37.70;;;;;;5071247;28;20032;-80
2022/01/18 13:10:51;;;;;;;4.60;1.90;;;8.10;36.80;;;;;;5082829;28;20067;-79
2022/01/18 13:13:21;;;;;;;3.72;1.63;;;8.10;37.50;;;;;;5083058;28;20039;-80
2022/01/18 13:16:07;;;;;;;6.07;2.25;;;8.10;37.60;;;;;;5063246;28;20036;-79
2022/01/18 13:27:03;;;;;;;7.32;2.42;;;8.20;39.20;;;;;;5081936;28;20108;-79
2022/01/18 13:29:30;;;;;;;4.88;2.15;;;7.90;38.00;;;;;;5033108;28;20309;-79
2022/01/18 13:32:09;;;;;;;7.45;3.10;;;8.00;37.80;;;;;;5064980;28;20027;-79
2022/01/18 13:34:40;;;;;;;5.35;2.80;;;8.10;37.60;;;;;;5084669;28;20095;-79
2022/01/18 13:37:11;;;;;;;11.50;4.40;;;8.20;38.90;;;;;;5073345;28;20032;-79
2022/01/18 13:39:40;;;;;;;8.30;3.17;;;8.10;37.80;;;;;;5075768;28;20030;-79
2022/01/18 13:42:16;;;;;;;12.30;4.57;;;8.10;39.80;;;;;;5094175;28;20221;-79
2022/01/18 13:45:12;;;;;;;5.03;1.95;;;8.00;38.20;;;;;;5084326;28;20020;-78
2022/01/18 13:48:02;;;;;;;6.30;2.05;;;7.80;36.60;;;;;;5082592;28;20078;-79
2022/01/18 13:50:48;;;;;;;10.45;4.15;;;7.70;35.90;;;;;;5066470;28;20364;-80
2022/01/18 13:53:16;;;;;;;6.95;3.33;;;7.90;37.50;;;;;;5080917;28;20400;-79
2022/01/18 13:55:55;;;;;;;7.40;2.13;;;7.60;37.00;;;;;;5080639;28;20035;-79
2022/01/18 13:58:25;;;;;;;5.20;3.05;;;7.80;37.40;;;;;;5080572;28;20008;-79
2022/01/18 14:00:52;;;;;;;5.22;2.72;;;7.60;36.20;;;;;;5061654;28;20035;-79
2022/01/18 14:03:29;;;;;;;7.20;2.80;;;7.50;37.10;;;;;;5080165;28;20024;-79
2022/01/18 14:05:56;;;;;;;6.15;2.10;;;7.80;37.90;;;;;;5080185;28;20020;-79
2022/01/18 14:08:51;;;;;;;7.95;2.42;;;7.90;36.90;;;;;;5079711;28;20051;-79
2022/01/18 14:11:28;;;;;;;9.63;3.90;;;7.70;35.80;;;;;;5079299;28;20036;-79
2022/01/18 14:13:56;;;;;;;6.90;3.17;;;7.90;36.00;;;;;;5080279;28;20362;-79
2022/01/18 14:16:23;;;;;;;6.82;2.58;;;8.00;36.80;;;;;;5080585;28;20020;-79
2022/01/18 14:18:54;;;;;;;10.57;4.88;;;8.10;36.20;;;;;;5080916;28;20525;-79
2022/01/18 14:21:23;;;;;;;17.10;6.18;;;8.50;37.50;;;;;;5080708;28;20115;-79
2022/01/18 14:23:52;;;;;;;10.40;3.78;;;8.80;37.60;;;;;;5080711;28;20551;-79
2022/01/18 14:26:19;;;;;;;9.30;4.03;;;8.90;35.60;;;;;;5080113;28;20039;-79